Time;durP1;ratioP1;P1;durP2;ratioP2;P2;SDS_P1;SDS_P2;PMS_P1;PMS_P2;Temp;Humidity;BMP_temperature;BMP_pressure;BME280_temperature;BME280_humidity;BME280_pressure;Samples;Min_cycle;Max_cycle;Signal;HPM_P1;HPM_P2
2022/05/30 00:00:51;;;;;;;1.80;1.10;;;;;;;;;;5085419;28;20528;-64
2022/05/30 00:03:18;;;;;;;5.57;1.40;;;;;;;;;;5086144;28;20565;-65
2022/05/30 00:05:46;;;;;;;2.78;1.13;;;;;;;;;;5089694;28;20394;-64
2022/05/30 00:08:12;;;;;;;4.63;1.40;;;;;;;;;;5085908;28;20044;-64
2022/05/30 00:10:40;;;;;;;2.05;1.10;;;;;;;;;;5091352;28;20220;-64
2022/05/30 00:13:06;;;;;;;2.47;1.58;;;;;;;;;;5089646;28;20048;-64
2022/05/30 00:15:32;;;;;;;2.17;1.55;;;;;;;;;;5091490;27;20096;-64
2022/05/30 00:17:59;;;;;;;3.13;1.15;;;;;;;;;;5091347;27;20117;-64
2022/05/30 00:20:26;;;;;;;4.63;1.33;;;;;;;;;;5088282;28;20515;-64
2022/05/30 00:22:52;;;;;;;2.88;1.65;;;;;;;;;;5080171;28;20043;-64
2022/05/30 00:25:19;;;;;;;6.93;1.95;;;;;;;;;;5090750;27;20083;-64
2022/05/30 00:27:45;;;;;;;3.83;1.38;;;;;;;;;;5090385;28;20035;-64
2022/05/30 00:30:12;;;;;;;1.65;1.20;;;;;;;;;;5091644;27;20467;-64
2022/05/30 00:32:39;;;;;;;5.25;1.58;;;;;;;;;;5089744;27;20051;-64
2022/05/30 00:35:06;;;;;;;3.88;1.73;;;;;;;;;;5055991;27;20047;-64
2022/05/30 00:37:32;;;;;;;4.20;1.70;;;;;;;;;;5090096;28;20040;-64
2022/05/30 00:39:58;;;;;;;6.38;2.03;;;;;;;;;;5086635;28;20048;-64
2022/05/30 00:42:26;;;;;;;2.20;1.42;;;;;;;;;;5097806;28;20044;-64
2022/05/30 00:44:53;;;;;;;3.38;1.70;;;;;;;;;;5087992;27;20056;-64
2022/05/30 00:47:20;;;;;;;4.38;1.40;;;;;;;;;;5096377;28;20114;-64
2022/05/30 00:49:48;;;;;;;3.58;1.63;;;;;;;;;;5094915;27;20506;-64
2022/05/30 00:52:17;;;;;;;4.38;2.13;;;;;;;;;;5093809;27;20047;-64
2022/05/30 00:54:48;;;;;;;3.38;1.80;;;;;;;;;;5087384;27;20048;-64
2022/05/30 00:57:20;;;;;;;4.13;2.20;;;;;;;;;;5095927;27;20048;-64
2022/05/30 00:59:50;;;;;;;3.55;1.75;;;;;;;;;;5088111;27;20381;-64
2022/05/30 01:02:16;;;;;;;6.38;1.80;;;;;;;;;;5094292;28;20043;-63
2022/05/30 01:07:27;;;;;;;4.05;1.83;;;;;;;;;;5093656;27;20353;-64
2022/05/30 01:09:54;;;;;;;3.28;1.92;;;;;;;;;;5088987;27;20473;-64
2022/05/30 01:12:33;;;;;;;3.88;1.60;;;;;;;;;;5088808;27;20236;-64
2022/05/30 01:14:59;;;;;;;4.40;1.90;;;;;;;;;;5094302;28;20484;-64
2022/05/30 01:17:25;;;;;;;7.90;3.13;;;;;;;;;;5099640;28;20058;-64
2022/05/30 01:20:16;;;;;;;2.10;1.40;;;;;;;;;;5091254;28;20080;-64
2022/05/30 01:22:45;;;;;;;3.85;2.20;;;;;;;;;;5090297;28;20574;-64
2022/05/30 01:25:17;;;;;;;5.90;1.88;;;;;;;;;;5097000;28;20397;-66
2022/05/30 01:27:44;;;;;;;3.17;2.08;;;;;;;;;;5094849;27;20170;-64
2022/05/30 01:30:12;;;;;;;2.20;1.40;;;;;;;;;;5086851;28;20056;-64
2022/05/30 01:32:38;;;;;;;4.65;2.67;;;;;;;;;;5088140;28;20047;-65
2022/05/30 01:35:05;;;;;;;3.90;1.77;;;;;;;;;;5086676;27;20044;-64
2022/05/30 01:37:31;;;;;;;3.22;1.98;;;;;;;;;;5090457;28;20486;-64
2022/05/30 01:39:57;;;;;;;4.05;1.60;;;;;;;;;;5089300;27;20067;-64
2022/05/30 01:42:23;;;;;;;3.90;2.30;;;;;;;;;;5091043;28;20040;-64
2022/05/30 01:44:50;;;;;;;6.65;1.90;;;;;;;;;;5093874;28;20065;-64
2022/05/30 01:47:16;;;;;;;6.18;2.60;;;;;;;;;;5084531;28;20119;-64
2022/05/30 01:49:43;;;;;;;6.90;2.10;;;;;;;;;;5090721;27;20097;-64
2022/05/30 01:52:10;;;;;;;4.68;1.67;;;;;;;;;;5092354;27;20044;-64
2022/05/30 01:54:36;;;;;;;3.00;1.48;;;;;;;;;;5085955;27;20043;-64
2022/05/30 01:57:03;;;;;;;4.00;2.08;;;;;;;;;;5088281;28;20451;-64
2022/05/30 01:59:29;;;;;;;4.18;1.55;;;;;;;;;;5088645;27;20123;-63
2022/05/30 02:01:55;;;;;;;6.70;2.13;;;;;;;;;;5088181;28;20123;-64
2022/05/30 02:04:22;;;;;;;3.47;2.00;;;;;;;;;;5089515;28;20039;-64
2022/05/30 02:06:49;;;;;;;4.45;1.55;;;;;;;;;;5093245;28;20036;-64
2022/05/30 02:09:16;;;;;;;5.05;2.72;;;;;;;;;;5092327;27;20560;-64
2022/05/30 02:11:42;;;;;;;4.43;2.22;;;;;;;;;;5090364;28;20036;-64
2022/05/30 02:14:09;;;;;;;4.53;2.50;;;;;;;;;;5086112;27;20053;-64
2022/05/30 02:19:23;;;;;;;4.93;2.10;;;;;;;;;;5088009;27;20044;-64
2022/05/30 02:21:50;;;;;;;4.18;2.30;;;;;;;;;;5088360;28;20047;-64
2022/05/30 02:24:16;;;;;;;8.45;2.45;;;;;;;;;;5089551;28;20039;-64
2022/05/30 02:26:43;;;;;;;5.63;2.55;;;;;;;;;;5091657;28;20040;-64
2022/05/30 02:29:10;;;;;;;4.75;2.05;;;;;;;;;;5088630;27;20247;-64
2022/05/30 02:31:36;;;;;;;4.80;2.00;;;;;;;;;;5084350;28;20111;-64
2022/05/30 02:36:48;;;;;;;5.22;2.10;;;;;;;;;;5086231;27;20052;-64
2022/05/30 02:39:15;;;;;;;5.13;2.47;;;;;;;;;;5088698;28;20524;-64
2022/05/30 02:41:41;;;;;;;6.05;1.98;;;;;;;;;;5091944;28;20040;-64
2022/05/30 02:44:08;;;;;;;4.68;2.40;;;;;;;;;;5087765;28;20239;-64
2022/05/30 02:46:35;;;;;;;3.40;2.10;;;;;;;;;;5090466;27;20042;-64
2022/05/30 02:49:01;;;;;;;6.43;2.08;;;;;;;;;;5085513;28;20044;-64
2022/05/30 02:51:27;;;;;;;5.63;2.22;;;;;;;;;;5066702;28;20097;-64
2022/05/30 02:53:53;;;;;;;6.65;3.33;;;;;;;;;;5089228;27;20047;-64
2022/05/30 02:56:19;;;;;;;3.05;1.80;;;;;;;;;;5088524;28;20501;-64
2022/05/30 02:58:46;;;;;;;3.90;1.88;;;;;;;;;;5086112;28;20105;-64
2022/05/30 03:01:12;;;;;;;4.75;2.50;;;;;;;;;;5087452;28;20036;-64
2022/05/30 03:03:39;;;;;;;8.80;1.92;;;;;;;;;;5091054;28;20044;-64
2022/05/30 03:06:05;;;;;;;6.40;2.75;;;;;;;;;;5088098;28;20035;-64
2022/05/30 03:08:31;;;;;;;3.78;2.28;;;;;;;;;;5087628;27;20521;-64
2022/05/30 03:10:58;;;;;;;5.53;2.45;;;;;;;;;;5088785;28;20079;-64
2022/05/30 03:13:24;;;;;;;5.18;2.45;;;;;;;;;;5084900;28;20496;-64
2022/05/30 03:15:50;;;;;;;5.40;2.13;;;;;;;;;;5089136;27;20043;-64
2022/05/30 03:18:16;;;;;;;3.97;1.73;;;;;;;;;;5086526;27;20395;-64
2022/05/30 03:20:42;;;;;;;4.75;2.25;;;;;;;;;;5087876;28;20051;-64
2022/05/30 03:23:08;;;;;;;3.90;1.85;;;;;;;;;;5086149;28;20043;-64
2022/05/30 03:25:35;;;;;;;4.53;2.13;;;;;;;;;;5090774;28;20328;-64
2022/05/30 03:28:01;;;;;;;6.88;2.53;;;;;;;;;;5089527;28;20039;-64
2022/05/30 03:30:28;;;;;;;9.18;2.58;;;;;;;;;;5085739;28;20040;-64
2022/05/30 03:32:54;;;;;;;4.32;2.30;;;;;;;;;;5084075;28;20974;-64
2022/05/30 03:35:20;;;;;;;4.80;2.58;;;;;;;;;;5088535;28;20094;-64
2022/05/30 03:37:47;;;;;;;6.80;2.95;;;;;;;;;;5088595;28;20504;-64
2022/05/30 03:40:14;;;;;;;7.25;2.25;;;;;;;;;;5087172;28;20385;-64
2022/05/30 03:42:40;;;;;;;4.03;2.28;;;;;;;;;;5090111;28;20482;-64
2022/05/30 03:45:08;;;;;;;4.15;1.90;;;;;;;;;;5087117;28;20354;-64
2022/05/30 03:47:41;;;;;;;3.67;2.28;;;;;;;;;;5092974;28;20040;-64
2022/05/30 03:50:08;;;;;;;3.45;1.98;;;;;;;;;;5099147;28;20040;-64
2022/05/30 03:52:34;;;;;;;6.68;2.55;;;;;;;;;;5085065;28;20523;-64
2022/05/30 03:55:02;;;;;;;3.83;2.05;;;;;;;;;;5087722;27;20096;-64
2022/05/30 03:57:28;;;;;;;10.63;2.78;;;;;;;;;;5087402;28;20128;-64
2022/05/30 03:59:54;;;;;;;4.07;1.95;;;;;;;;;;5086768;28;20413;-63
2022/05/30 04:02:20;;;;;;;3.47;2.05;;;;;;;;;;5085526;28;20070;-64
2022/05/30 04:04:46;;;;;;;3.45;2.00;;;;;;;;;;5083333;28;20435;-64
2022/05/30 04:07:12;;;;;;;4.97;2.00;;;;;;;;;;5085917;28;20044;-64
2022/05/30 04:09:39;;;;;;;3.67;2.10;;;;;;;;;;5084996;27;20277;-64
2022/05/30 04:12:05;;;;;;;5.15;1.83;;;;;;;;;;5083115;28;20538;-64
2022/05/30 04:14:32;;;;;;;5.90;2.63;;;;;;;;;;5086991;28;20503;-64
2022/05/30 04:17:01;;;;;;;4.55;1.80;;;;;;;;;;5087706;28;20036;-64
2022/05/30 04:19:30;;;;;;;8.48;2.70;;;;;;;;;;5086937;28;20048;-64
2022/05/30 04:21:56;;;;;;;2.75;1.67;;;;;;;;;;5086801;28;20036;-64
2022/05/30 04:24:22;;;;;;;5.53;2.70;;;;;;;;;;5087673;28;20039;-64
2022/05/30 04:26:48;;;;;;;3.05;2.00;;;;;;;;;;5092378;28;20505;-64
2022/05/30 04:29:14;;;;;;;6.45;2.22;;;;;;;;;;5086692;28;20040;-64
2022/05/30 04:31:40;;;;;;;3.40;2.13;;;;;;;;;;5087701;28;20526;-64
2022/05/30 04:34:08;;;;;;;4.07;1.73;;;;;;;;;;5084991;28;20525;-64
2022/05/30 04:36:34;;;;;;;6.00;2.10;;;;;;;;;;5085663;28;20486;-64
2022/05/30 04:39:00;;;;;;;6.15;2.05;;;;;;;;;;5085558;28;20039;-64
2022/05/30 04:41:26;;;;;;;4.50;2.05;;;;;;;;;;5089095;28;20032;-63
2022/05/30 04:43:52;;;;;;;5.68;2.20;;;;;;;;;;5084010;28;20043;-64
2022/05/30 04:46:22;;;;;;;2.53;1.75;;;;;;;;;;5087085;28;20040;-64
2022/05/30 04:48:48;;;;;;;3.33;1.90;;;;;;;;;;5086657;28;20148;-64
2022/05/30 04:51:15;;;;;;;3.25;1.92;;;;;;;;;;5094821;28;20442;-64
2022/05/30 04:53:41;;;;;;;4.55;1.85;;;;;;;;;;5094249;28;20034;-63
2022/05/30 04:56:08;;;;;;;3.80;2.03;;;;;;;;;;5094864;28;20090;-64
2022/05/30 04:58:36;;;;;;;5.70;2.03;;;;;;;;;;5095558;28;20238;-64
2022/05/30 05:01:04;;;;;;;4.20;1.92;;;;;;;;;;5096994;28;20036;-64
2022/05/30 05:03:31;;;;;;;2.00;1.38;;;;;;;;;;5094582;27;20072;-64
2022/05/30 05:06:12;;;;;;;3.80;1.42;;;;;;;;;;5094864;28;20032;-64
2022/05/30 05:08:48;;;;;;;3.72;2.15;;;;;;;;;;5094891;27;20048;-64
2022/05/30 05:11:22;;;;;;;4.50;1.33;;;;;;;;;;5096285;28;20046;-64
2022/05/30 05:13:48;;;;;;;2.22;1.35;;;;;;;;;;5096450;27;20115;-64
2022/05/30 05:16:16;;;;;;;3.78;1.40;;;;;;;;;;5103675;27;20123;-64
2022/05/30 05:18:42;;;;;;;6.22;2.00;;;;;;;;;;5093415;28;20032;-64
2022/05/30 05:21:08;;;;;;;2.75;1.35;;;;;;;;;;5086393;28;20035;-64
2022/05/30 05:23:35;;;;;;;3.20;1.20;;;;;;;;;;5102387;28;20134;-64
2022/05/30 05:26:06;;;;;;;2.63;1.33;;;;;;;;;;5072164;28;20430;-64
2022/05/30 05:28:32;;;;;;;4.20;1.75;;;;;;;;;;5092325;27;20042;-64
2022/05/30 05:30:58;;;;;;;1.95;1.42;;;;;;;;;;5095042;27;20054;-65
2022/05/30 05:33:24;;;;;;;2.28;1.17;;;;;;;;;;5088617;28;20040;-65
2022/05/30 05:35:50;;;;;;;2.15;1.40;;;;;;;;;;5093798;27;20492;-64
2022/05/30 05:38:16;;;;;;;3.15;1.80;;;;;;;;;;5091371;28;20186;-65
2022/05/30 05:40:44;;;;;;;3.60;1.17;;;;;;;;;;5095044;27;20312;-64
2022/05/30 05:43:10;;;;;;;1.77;1.20;;;;;;;;;;5093063;27;20478;-64
2022/05/30 05:45:37;;;;;;;2.08;1.20;;;;;;;;;;5101062;27;20043;-64
2022/05/30 05:48:04;;;;;;;2.70;1.15;;;;;;;;;;5094988;28;20043;-64
2022/05/30 05:50:30;;;;;;;2.92;1.42;;;;;;;;;;5095676;27;20080;-65
2022/05/30 05:52:56;;;;;;;2.40;1.23;;;;;;;;;;5089755;27;20508;-65
2022/05/30 05:55:22;;;;;;;2.53;1.73;;;;;;;;;;5093732;27;20049;-64
2022/05/30 05:57:49;;;;;;;5.93;1.30;;;;;;;;;;5088490;28;20048;-64
2022/05/30 06:00:15;;;;;;;2.55;1.60;;;;;;;;;;5088708;27;20032;-64
2022/05/30 06:02:41;;;;;;;3.45;1.30;;;;;;;;;;5091164;27;20051;-65
2022/05/30 06:05:11;;;;;;;3.67;1.75;;;;;;;;;;5087224;28;20047;-65
2022/05/30 06:07:38;;;;;;;3.28;1.45;;;;;;;;;;5090700;27;20105;-64
2022/05/30 06:10:05;;;;;;;2.80;1.27;;;;;;;;;;5086615;27;20059;-65
2022/05/30 06:12:34;;;;;;;1.92;1.15;;;;;;;;;;5088739;28;20072;-64
2022/05/30 06:15:00;;;;;;;4.22;1.95;;;;;;;;;;5095598;27;20119;-65
2022/05/30 06:17:26;;;;;;;9.30;2.65;;;;;;;;;;5088345;28;20380;-64
2022/05/30 06:19:52;;;;;;;1.65;0.98;;;;;;;;;;5086892;28;20490;-65
2022/05/30 06:22:18;;;;;;;4.50;1.75;;;;;;;;;;5086538;27;20280;-64
2022/05/30 06:24:44;;;;;;;2.38;1.15;;;;;;;;;;5090518;28;20043;-65
2022/05/30 06:27:15;;;;;;;2.45;1.42;;;;;;;;;;5087590;27;20057;-64
2022/05/30 06:29:42;;;;;;;1.80;1.20;;;;;;;;;;5101748;28;20509;-65
2022/05/30 06:32:08;;;;;;;3.42;1.58;;;;;;;;;;5086427;28;20044;-65
2022/05/30 06:34:35;;;;;;;4.10;1.58;;;;;;;;;;5086367;28;20051;-65
2022/05/30 06:37:01;;;;;;;2.88;1.25;;;;;;;;;;5084381;28;20405;-65
2022/05/30 06:39:27;;;;;;;3.65;1.17;;;;;;;;;;5086744;28;20063;-65
2022/05/30 06:41:53;;;;;;;3.35;1.10;;;;;;;;;;5092926;27;20036;-65
2022/05/30 06:44:20;;;;;;;3.00;1.77;;;;;;;;;;5091280;27;20043;-64
2022/05/30 06:46:46;;;;;;;5.13;1.30;;;;;;;;;;5086753;28;20127;-65
2022/05/30 06:49:12;;;;;;;2.90;1.23;;;;;;;;;;5093147;28;20413;-65
2022/05/30 06:51:39;;;;;;;4.30;1.65;;;;;;;;;;5086951;27;20040;-65
2022/05/30 06:54:07;;;;;;;1.73;1.13;;;;;;;;;;5088680;28;20421;-65
2022/05/30 06:56:35;;;;;;;2.50;1.65;;;;;;;;;;5080991;28;20036;-65
2022/05/30 06:59:01;;;;;;;3.28;1.30;;;;;;;;;;5084941;28;20473;-65
2022/05/30 07:01:29;;;;;;;5.28;2.22;;;;;;;;;;5084631;28;20120;-65
2022/05/30 07:03:55;;;;;;;4.38;1.42;;;;;;;;;;5085853;28;20073;-65
2022/05/30 07:06:23;;;;;;;2.28;1.27;;;;;;;;;;5086902;27;20505;-65
2022/05/30 07:08:49;;;;;;;2.25;1.23;;;;;;;;;;5094922;28;20587;-65
2022/05/30 07:11:17;;;;;;;4.70;1.27;;;;;;;;;;5083102;28;20412;-64
2022/05/30 07:13:44;;;;;;;2.50;1.00;;;;;;;;;;5093931;28;20036;-65
2022/05/30 07:16:10;;;;;;;5.18;1.45;;;;;;;;;;5085643;27;20111;-64
2022/05/30 07:18:36;;;;;;;4.68;1.30;;;;;;;;;;5094172;27;20051;-64
2022/05/30 07:21:06;;;;;;;5.65;1.50;;;;;;;;;;5083832;28;20434;-64
2022/05/30 07:23:33;;;;;;;2.08;0.90;;;;;;;;;;5091518;28;20436;-64
2022/05/30 07:26:00;;;;;;;2.50;0.98;;;;;;;;;;5084076;27;20040;-64
2022/05/30 07:28:30;;;;;;;2.10;0.80;;;;;;;;;;5087799;27;20237;-65
2022/05/30 07:31:03;;;;;;;1.65;1.00;;;;;;;;;;5085379;28;20051;-64
2022/05/30 07:33:29;;;;;;;1.20;0.80;;;;;;;;;;5091883;28;20055;-64
2022/05/30 07:35:55;;;;;;;1.35;0.63;;;;;;;;;;5088841;28;20043;-64
2022/05/30 07:38:21;;;;;;;2.05;0.90;;;;;;;;;;5095112;28;20032;-64
2022/05/30 07:40:48;;;;;;;2.38;0.80;;;;;;;;;;5083180;27;20567;-64
2022/05/30 07:43:14;;;;;;;1.63;0.70;;;;;;;;;;5084937;28;20384;-64
2022/05/30 07:45:41;;;;;;;1.42;0.80;;;;;;;;;;5096260;28;20465;-65
2022/05/30 07:48:07;;;;;;;1.20;0.88;;;;;;;;;;5088229;28;20779;-64
2022/05/30 07:50:37;;;;;;;2.35;0.68;;;;;;;;;;5088955;28;20031;-65
2022/05/30 07:53:04;;;;;;;0.55;0.50;;;;;;;;;;5088112;28;20039;-65
2022/05/30 07:55:30;;;;;;;0.77;0.50;;;;;;;;;;5088300;28;20042;-64
2022/05/30 07:58:04;;;;;;;0.63;0.60;;;;;;;;;;5092894;28;20043;-65
2022/05/30 08:00:33;;;;;;;1.10;0.70;;;;;;;;;;5086069;28;20135;-65
2022/05/30 08:02:59;;;;;;;1.40;0.90;;;;;;;;;;5086961;28;20110;-65
2022/05/30 08:05:25;;;;;;;2.95;0.80;;;;;;;;;;5087905;28;20039;-64
2022/05/30 08:07:52;;;;;;;2.03;0.60;;;;;;;;;;5088030;28;20059;-64
2022/05/30 08:10:19;;;;;;;2.58;0.70;;;;;;;;;;5085254;28;20063;-64
2022/05/30 08:12:46;;;;;;;1.45;0.70;;;;;;;;;;5091687;28;20043;-65
2022/05/30 08:15:13;;;;;;;0.95;0.73;;;;;;;;;;5091381;28;20277;-64
2022/05/30 08:17:40;;;;;;;1.48;0.80;;;;;;;;;;5083964;28;20101;-64
2022/05/30 08:20:08;;;;;;;1.20;0.73;;;;;;;;;;5088092;28;20115;-64
2022/05/30 08:22:34;;;;;;;3.45;0.93;;;;;;;;;;5085346;28;20036;-64
2022/05/30 08:25:03;;;;;;;4.78;1.00;;;;;;;;;;5068276;28;20047;-64
2022/05/30 08:27:30;;;;;;;1.25;0.88;;;;;;;;;;5087124;28;20047;-65
2022/05/30 08:29:56;;;;;;;1.77;0.85;;;;;;;;;;5091102;28;20044;-64
2022/05/30 08:32:23;;;;;;;1.48;0.95;;;;;;;;;;5088686;28;20578;-64
2022/05/30 08:34:49;;;;;;;1.90;0.70;;;;;;;;;;5090160;28;20074;-64
2022/05/30 08:37:15;;;;;;;1.85;0.80;;;;;;;;;;5094722;27;20262;-64
2022/05/30 08:42:31;;;;;;;1.83;0.82;;;;;;;;;;5095646;27;20043;-64
2022/05/30 08:44:57;;;;;;;1.10;0.82;;;;;;;;;;5088696;27;20185;-64
2022/05/30 08:47:42;;;;;;;2.35;1.20;;;;;;;;;;5091134;27;20036;-64
2022/05/30 08:50:14;;;;;;;2.58;0.68;;;;;;;;;;5093633;27;20052;-64
2022/05/30 08:52:48;;;;;;;1.20;0.60;;;;;;;;;;5096399;28;20047;-65
2022/05/30 08:55:28;;;;;;;2.30;0.80;;;;;;;;;;5094144;28;20040;-64
2022/05/30 08:58:09;;;;;;;1.30;0.70;;;;;;;;;;5097506;28;20949;-65
2022/05/30 09:00:37;;;;;;;2.58;0.95;;;;;;;;;;5093725;27;20496;-64
2022/05/30 09:03:22;;;;;;;1.70;0.85;;;;;;;;;;5090445;28;20039;-64
2022/05/30 09:05:50;;;;;;;6.18;1.00;;;;;;;;;;5089247;27;20040;-65
2022/05/30 09:08:42;;;;;;;2.13;0.98;;;;;;;;;;5090798;28;20135;-65
2022/05/30 09:11:29;;;;;;;2.45;1.27;;;;;;;;;;5089802;28;20585;-64
2022/05/30 09:13:56;;;;;;;4.38;1.20;;;;;;;;;;5089761;27;20038;-64
2022/05/30 09:16:34;;;;;;;3.55;1.35;;;;;;;;;;5089193;27;20035;-64
2022/05/30 09:19:02;;;;;;;3.03;1.00;;;;;;;;;;5091571;27;20042;-64
2022/05/30 09:21:29;;;;;;;2.28;0.98;;;;;;;;;;5093206;28;20051;-64
2022/05/30 09:23:56;;;;;;;2.92;1.15;;;;;;;;;;5091059;27;20397;-64
2022/05/30 09:26:23;;;;;;;1.80;0.85;;;;;;;;;;5089997;28;20081;-65
2022/05/30 09:28:50;;;;;;;3.65;1.13;;;;;;;;;;5093825;28;20131;-64
2022/05/30 09:31:35;;;;;;;4.45;1.00;;;;;;;;;;5087439;28;20103;-65
2022/05/30 09:34:21;;;;;;;4.80;1.20;;;;;;;;;;5090689;27;20043;-64
2022/05/30 09:36:49;;;;;;;1.75;0.70;;;;;;;;;;5086145;28;20040;-65
2022/05/30 09:39:16;;;;;;;3.78;1.63;;;;;;;;;;5092292;28;20082;-65
2022/05/30 09:41:43;;;;;;;3.22;0.80;;;;;;;;;;5100170;28;20089;-65
2022/05/30 09:44:18;;;;;;;1.85;0.80;;;;;;;;;;5069632;28;20032;-64
2022/05/30 09:46:51;;;;;;;1.50;0.82;;;;;;;;;;5092735;27;20174;-64
2022/05/30 09:49:18;;;;;;;2.90;0.88;;;;;;;;;;5099979;27;20077;-65
2022/05/30 09:51:46;;;;;;;2.20;0.90;;;;;;;;;;5087427;27;20379;-64
2022/05/30 09:54:29;;;;;;;8.48;1.23;;;;;;;;;;5090383;28;20042;-64
2022/05/30 09:57:18;;;;;;;4.68;1.60;;;;;;;;;;5096078;28;20617;-64
2022/05/30 09:59:46;;;;;;;2.10;1.02;;;;;;;;;;5086918;28;20040;-64
2022/05/30 10:02:32;;;;;;;2.67;1.20;;;;;;;;;;5086652;27;20040;-65
2022/05/30 10:04:58;;;;;;;3.30;1.45;;;;;;;;;;5087892;27;20555;-65
2022/05/30 10:07:25;;;;;;;5.00;1.30;;;;;;;;;;5087205;27;20043;-64
2022/05/30 10:09:53;;;;;;;3.08;1.10;;;;;;;;;;5089319;28;20527;-65
2022/05/30 10:12:34;;;;;;;4.15;1.63;;;;;;;;;;5088179;28;20067;-64
2022/05/30 10:15:01;;;;;;;4.53;1.70;;;;;;;;;;5090628;27;20553;-65
2022/05/30 10:17:33;;;;;;;4.78;1.17;;;;;;;;;;5093800;27;20167;-64
2022/05/30 10:20:00;;;;;;;;;;;;;;;;;;5089465;28;20050;-65
2022/05/30 10:28:39;;;;;;;1.80;1.38;;;;;;;;;;5089932;28;20135;-64
2022/05/30 10:31:20;;;;;;;5.25;1.13;;;;;;;;;;5090095;28;20074;-64
2022/05/30 10:33:49;;;;;;;1.95;1.25;;;;;;;;;;5075471;28;20097;-64
2022/05/30 10:36:15;;;;;;;1.80;1.02;;;;;;;;;;5086918;28;20039;-65
2022/05/30 10:38:47;;;;;;;2.45;1.58;;;;;;;;;;5089283;27;20104;-65
2022/05/30 10:41:25;;;;;;;2.60;1.33;;;;;;;;;;5084926;27;20243;-65
2022/05/30 10:43:58;;;;;;;6.28;2.30;;;;;;;;;;5103655;28;20172;-65
2022/05/30 10:46:24;;;;;;;4.00;1.40;;;;;;;;;;5088502;27;20040;-65
2022/05/30 10:49:01;;;;;;;2.92;1.40;;;;;;;;;;5091403;27;20509;-65
2022/05/30 10:51:30;;;;;;;5.40;1.42;;;;;;;;;;5086761;27;20043;-65
2022/05/30 10:53:56;;;;;;;3.45;1.60;;;;;;;;;;5089027;28;20040;-65
2022/05/30 10:56:28;;;;;;;2.03;1.10;;;;;;;;;;5085248;28;20067;-64
2022/05/30 10:58:57;;;;;;;2.67;1.30;;;;;;;;;;5091063;27;20040;-65
2022/05/30 11:01:31;;;;;;;4.22;1.42;;;;;;;;;;5082903;28;20043;-65
2022/05/30 11:04:08;;;;;;;1.08;0.85;;;;;;;;;;5086765;27;20044;-64
2022/05/30 11:06:37;;;;;;;2.05;0.80;;;;;;;;;;5089242;27;20032;-64
2022/05/30 11:09:10;;;;;;;1.23;0.70;;;;;;;;;;5086304;28;20086;-65
2022/05/30 11:11:39;;;;;;;2.15;0.73;;;;;;;;;;5085420;28;20063;-64
2022/05/30 11:14:09;;;;;;;4.63;1.20;;;;;;;;;;5083724;28;20482;-65
2022/05/30 11:16:38;;;;;;;4.28;1.00;;;;;;;;;;5072832;28;20115;-65
2022/05/30 11:19:09;;;;;;;1.92;0.85;;;;;;;;;;5088897;27;20086;-65
2022/05/30 11:21:42;;;;;;;2.08;0.90;;;;;;;;;;5089988;28;20036;-66
2022/05/30 11:24:09;;;;;;;1.15;0.80;;;;;;;;;;5086345;28;20070;-65
2022/05/30 11:26:35;;;;;;;5.85;1.40;;;;;;;;;;5085109;28;20032;-65
2022/05/30 11:29:19;;;;;;;3.40;1.00;;;;;;;;;;5085911;28;20071;-65
2022/05/30 11:32:06;;;;;;;1.83;1.25;;;;;;;;;;5088829;28;20092;-65
2022/05/30 11:34:35;;;;;;;2.15;1.17;;;;;;;;;;5086110;28;20062;-65
2022/05/30 11:37:01;;;;;;;7.65;1.65;;;;;;;;;;5085723;27;20688;-65
2022/05/30 11:39:54;;;;;;;2.40;0.80;;;;;;;;;;5085616;27;20440;-65
2022/05/30 11:42:26;;;;;;;1.85;0.90;;;;;;;;;;5084612;28;20130;-65
2022/05/30 11:44:59;;;;;;;2.63;1.20;;;;;;;;;;5067435;28;20170;-65
2022/05/30 11:47:44;;;;;;;4.90;1.30;;;;;;;;;;5089397;28;20485;-65
2022/05/30 11:50:10;;;;;;;2.50;1.45;;;;;;;;;;5089363;28;20031;-65
2022/05/30 11:52:44;;;;;;;2.17;1.10;;;;;;;;;;5084658;28;20122;-66
2022/05/30 11:55:20;;;;;;;4.30;1.67;;;;;;;;;;5083649;28;20335;-65
2022/05/30 11:58:04;;;;;;;1.90;1.20;;;;;;;;;;5098911;28;20044;-65
2022/05/30 12:00:35;;;;;;;5.28;1.15;;;;;;;;;;5093506;28;20109;-65
2022/05/30 12:03:18;;;;;;;3.05;1.00;;;;;;;;;;5086235;28;20064;-65
2022/05/30 12:05:47;;;;;;;2.10;1.10;;;;;;;;;;5086014;28;20185;-65
2022/05/30 12:08:13;;;;;;;1.45;0.85;;;;;;;;;;5096418;27;20059;-65
2022/05/30 12:10:45;;;;;;;4.53;0.93;;;;;;;;;;5092625;27;20553;-65
2022/05/30 12:13:11;;;;;;;2.90;1.05;;;;;;;;;;5092047;27;20595;-65
2022/05/30 12:15:39;;;;;;;1.92;1.02;;;;;;;;;;5092056;27;20138;-65
2022/05/30 12:24:00;;;;;;;2.00;1.13;;;;;;;;;;5091443;27;20036;-65
2022/05/30 12:26:44;;;;;;;1.67;0.90;;;;;;;;;;5092296;27;20131;-65
2022/05/30 12:29:30;;;;;;;2.85;1.27;;;;;;;;;;5101686;27;20044;-66
2022/05/30 12:32:18;;;;;;;4.35;1.10;;;;;;;;;;5095849;27;20520;-65
2022/05/30 12:35:11;;;;;;;2.08;0.88;;;;;;;;;;5092662;27;20514;-66
2022/05/30 12:37:51;;;;;;;2.15;1.08;;;;;;;;;;5093637;27;20040;-65
2022/05/30 12:40:26;;;;;;;2.28;0.95;;;;;;;;;;5092067;27;20463;-66
2022/05/30 12:43:14;;;;;;;2.42;1.05;;;;;;;;;;5092085;27;20044;-65
2022/05/30 12:45:48;;;;;;;2.70;1.20;;;;;;;;;;5094772;27;20382;-65
2022/05/30 12:48:24;;;;;;;1.67;0.98;;;;;;;;;;5095082;27;20071;-65
2022/05/30 12:50:51;;;;;;;1.17;0.65;;;;;;;;;;5091772;27;20105;-66
2022/05/30 12:53:18;;;;;;;2.05;0.90;;;;;;;;;;5091393;27;20485;-65
2022/05/30 12:55:49;;;;;;;1.63;1.08;;;;;;;;;;5098629;27;20486;-65
2022/05/30 12:58:28;;;;;;;1.10;0.68;;;;;;;;;;5093737;27;20044;-65
2022/05/30 13:01:14;;;;;;;1.30;0.70;;;;;;;;;;5094208;27;20052;-65
2022/05/30 13:03:44;;;;;;;1.23;0.80;;;;;;;;;;5082976;27;20076;-65
2022/05/30 13:06:16;;;;;;;1.73;0.88;;;;;;;;;;5090904;27;20036;-66
2022/05/30 13:08:45;;;;;;;1.05;0.70;;;;;;;;;;5092527;27;20092;-65
2022/05/30 13:11:12;;;;;;;1.25;0.68;;;;;;;;;;5098941;27;20044;-65
2022/05/30 13:13:44;;;;;;;1.40;0.85;;;;;;;;;;5095688;27;20040;-65
2022/05/30 13:16:14;;;;;;;1.95;0.82;;;;;;;;;;5091877;27;20476;-65
2022/05/30 13:18:40;;;;;;;1.65;0.65;;;;;;;;;;5090994;28;20136;-65
2022/05/30 13:21:07;;;;;;;2.50;0.90;;;;;;;;;;5088705;27;20078;-65
2022/05/30 13:23:35;;;;;;;2.13;0.75;;;;;;;;;;5090828;28;20044;-65
2022/05/30 13:26:02;;;;;;;2.22;1.10;;;;;;;;;;5091889;27;20036;-65
2022/05/30 13:28:30;;;;;;;1.20;0.80;;;;;;;;;;5094574;28;20038;-65
2022/05/30 13:30:57;;;;;;;3.45;1.17;;;;;;;;;;5094188;28;20058;-65
2022/05/30 13:33:28;;;;;;;3.58;1.00;;;;;;;;;;5096528;28;20036;-65
2022/05/30 13:35:57;;;;;;;0.63;0.60;;;;;;;;;;5088287;27;20057;-65
2022/05/30 13:38:39;;;;;;;0.73;0.63;;;;;;;;;;5088804;27;20047;-65
2022/05/30 13:41:20;;;;;;;0.63;0.60;;;;;;;;;;5088996;27;20044;-65
2022/05/30 13:43:47;;;;;;;0.98;0.73;;;;;;;;;;5093838;28;20031;-65
2022/05/30 13:46:13;;;;;;;1.63;1.08;;;;;;;;;;5099054;28;20070;-65
2022/05/30 13:48:39;;;;;;;0.70;0.60;;;;;;;;;;5072332;28;20096;-65
2022/05/30 13:51:07;;;;;;;3.35;0.98;;;;;;;;;;5088704;27;20044;-66
2022/05/30 13:53:38;;;;;;;1.17;0.93;;;;;;;;;;5087967;27;20509;-65
2022/05/30 13:56:23;;;;;;;2.85;1.00;;;;;;;;;;5088575;27;20036;-66
2022/05/30 13:58:52;;;;;;;2.17;1.30;;;;;;;;;;5093869;27;20043;-66
2022/05/30 14:01:23;;;;;;;2.67;1.02;;;;;;;;;;5089161;28;20448;-66
2022/05/30 14:04:03;;;;;;;2.53;1.08;;;;;;;;;;5087165;27;20497;-66
2022/05/30 14:06:33;;;;;;;0.80;0.70;;;;;;;;;;5089411;28;20379;-66
2022/05/30 14:09:01;;;;;;;1.67;0.70;;;;;;;;;;5091181;28;20134;-63
2022/05/30 14:11:29;;;;;;;5.95;1.50;;;;;;;;;;5085827;27;20477;-64
2022/05/30 14:13:56;;;;;;;3.03;1.10;;;;;;;;;;5087407;27;20039;-63
2022/05/30 14:16:36;;;;;;;4.30;1.55;;;;;;;;;;5088361;27;20070;-64
2022/05/30 14:19:09;;;;;;;1.23;0.98;;;;;;;;;;5087285;27;20340;-64
2022/05/30 14:21:39;;;;;;;1.20;0.70;;;;;;;;;;5088392;28;20048;-64
2022/05/30 14:24:14;;;;;;;2.17;0.98;;;;;;;;;;5090544;28;20567;-64
2022/05/30 14:26:40;;;;;;;2.60;0.80;;;;;;;;;;5095159;27;20044;-63
2022/05/30 14:29:08;;;;;;;2.60;0.90;;;;;;;;;;5086787;27;20072;-64
2022/05/30 14:31:35;;;;;;;1.67;0.93;;;;;;;;;;5087182;27;20043;-63
2022/05/30 14:34:10;;;;;;;1.02;0.80;;;;;;;;;;5085538;27;20565;-64
2022/05/30 14:36:37;;;;;;;2.17;0.85;;;;;;;;;;5088870;28;20181;-63
2022/05/30 14:39:13;;;;;;;2.42;0.88;;;;;;;;;;5086199;28;20576;-64
2022/05/30 14:41:39;;;;;;;1.70;0.88;;;;;;;;;;5083112;28;20514;-64
2022/05/30 14:44:05;;;;;;;4.68;0.80;;;;;;;;;;5090168;28;20035;-64
2022/05/30 14:46:37;;;;;;;1.63;0.85;;;;;;;;;;5086090;27;20476;-63
2022/05/30 14:49:04;;;;;;;2.95;0.93;;;;;;;;;;5087764;28;20131;-63
2022/05/30 14:51:32;;;;;;;3.00;1.15;;;;;;;;;;5094750;27;20123;-63
2022/05/30 14:54:10;;;;;;;3.88;1.27;;;;;;;;;;5089790;28;20071;-62
2022/05/30 14:56:39;;;;;;;3.13;0.85;;;;;;;;;;5086055;28;20632;-64
2022/05/30 14:59:07;;;;;;;3.33;1.05;;;;;;;;;;5088193;28;20063;-63
2022/05/30 15:01:33;;;;;;;2.45;0.80;;;;;;;;;;5088452;28;20040;-64
2022/05/30 15:04:09;;;;;;;7.78;1.00;;;;;;;;;;5086652;27;20097;-63
2022/05/30 15:06:38;;;;;;;2.53;0.90;;;;;;;;;;5084947;28;20148;-63
2022/05/30 15:09:05;;;;;;;2.08;0.70;;;;;;;;;;5086654;27;20059;-63
2022/05/30 15:11:32;;;;;;;2.42;0.98;;;;;;;;;;5085209;27;20040;-64
2022/05/30 15:14:03;;;;;;;3.75;1.15;;;;;;;;;;5092564;28;20054;-64
2022/05/30 15:16:30;;;;;;;2.50;1.05;;;;;;;;;;5092138;28;20051;-64
2022/05/30 15:18:56;;;;;;;2.47;1.00;;;;;;;;;;5094089;28;20164;-64